createdAt,value
2023-01-13T00:00:04.626Z,12.60
2023-01-13T00:02:32.626Z,13.50
2023-01-13T00:05:00.440Z,11.00
2023-01-13T00:07:28.216Z,9.50
2023-01-13T00:09:55.910Z,8.70
2023-01-13T00:12:23.661Z,8.40
2023-01-13T00:14:51.348Z,8.40
2023-01-13T00:17:19.077Z,7.80
2023-01-13T00:19:46.875Z,8.80
2023-01-13T00:22:14.577Z,8.40
2023-01-13T00:24:42.291Z,8.20
2023-01-13T00:27:10.020Z,7.50
2023-01-13T00:29:37.760Z,7.60
2023-01-13T00:32:05.487Z,8.80
2023-01-13T00:34:33.237Z,7.90
2023-01-13T00:37:00.993Z,8.10
2023-01-13T00:39:28.784Z,6.50
2023-01-13T00:42:15.253Z,6.40
2023-01-13T00:44:42.941Z,7.60
2023-01-13T00:47:10.647Z,7.10
2023-01-13T00:49:38.417Z,7.40
2023-01-13T00:52:06.200Z,6.50
2023-01-13T00:54:33.887Z,7.40
2023-01-13T00:57:01.593Z,6.60
2023-01-13T00:59:29.295Z,7.20
2023-01-13T01:01:57.098Z,7.30
2023-01-13T01:04:24.958Z,7.70
2023-01-13T01:06:52.624Z,6.80
2023-01-13T01:09:20.496Z,6.90
2023-01-13T01:11:48.182Z,7.20
2023-01-13T01:14:15.955Z,6.70
2023-01-13T01:16:43.743Z,6.70
2023-01-13T01:19:11.431Z,7.00
2023-01-13T01:21:39.212Z,7.30
2023-01-13T01:24:06.907Z,6.80
2023-01-13T01:26:34.656Z,6.00
2023-01-13T01:29:02.498Z,6.10
2023-01-13T01:31:31.628Z,5.60
2023-01-13T01:33:59.441Z,5.90
2023-01-13T01:36:27.174Z,6.10
2023-01-13T01:38:54.875Z,7.00
2023-01-13T01:41:22.611Z,6.90
2023-01-13T01:43:59.493Z,6.00
2023-01-13T01:46:27.403Z,5.50
2023-01-13T01:48:55.115Z,6.10
2023-01-13T01:51:22.801Z,5.10
2023-01-13T01:53:50.531Z,5.40
2023-01-13T01:56:18.245Z,5.40
2023-01-13T01:58:46.030Z,4.90
2023-01-13T02:01:13.895Z,5.70
2023-01-13T02:03:41.729Z,5.40
2023-01-13T02:06:09.429Z,5.00
2023-01-13T02:08:37.126Z,5.40
2023-01-13T02:11:04.808Z,5.10
2023-01-13T02:13:32.502Z,5.10
2023-01-13T02:16:00.249Z,5.40
2023-01-13T02:18:27.978Z,5.70
2023-01-13T02:20:55.661Z,5.20
2023-01-13T02:23:42.200Z,5.40
2023-01-13T02:26:09.892Z,5.80
2023-01-13T02:28:37.579Z,5.70
2023-01-13T02:31:24.140Z,5.40
2023-01-13T02:33:51.836Z,6.10
2023-01-13T02:36:19.569Z,5.80
2023-01-13T02:38:47.342Z,5.30
2023-01-13T02:41:34.032Z,5.30
2023-01-13T02:44:07.787Z,5.50
2023-01-13T02:46:35.532Z,4.80
2023-01-13T02:49:03.226Z,5.10
2023-01-13T02:51:30.933Z,4.80
2023-01-13T02:53:58.621Z,5.00
2023-01-13T02:56:26.356Z,5.20
2023-01-13T02:58:54.087Z,5.30
2023-01-13T03:01:21.941Z,4.50
2023-01-13T03:03:50.332Z,4.90
2023-01-13T03:06:17.954Z,4.30
2023-01-13T03:08:46.874Z,5.00
2023-01-13T03:11:14.482Z,5.30
2023-01-13T03:13:42.116Z,5.00
2023-01-13T03:16:09.812Z,4.60
2023-01-13T03:18:37.547Z,4.60
2023-01-13T03:21:05.162Z,4.10
2023-01-13T03:23:32.762Z,5.20
2023-01-13T03:26:00.399Z,4.90
2023-01-13T03:28:27.992Z,4.70
2023-01-13T03:30:55.714Z,4.90
2023-01-13T03:33:23.359Z,4.10
2023-01-13T03:35:51.013Z,4.40
2023-01-13T03:38:18.695Z,4.80
2023-01-13T03:40:46.308Z,4.00
2023-01-13T03:43:32.852Z,4.80
2023-01-13T03:46:00.526Z,4.30
2023-01-13T03:48:28.174Z,4.50
2023-01-13T03:50:56.473Z,4.90
2023-01-13T03:53:24.143Z,4.80
2023-01-13T03:55:51.749Z,4.50
2023-01-13T03:58:19.444Z,4.10
2023-01-13T04:00:47.108Z,4.50
2023-01-13T04:03:14.734Z,4.20
2023-01-13T04:05:42.337Z,4.60
2023-01-13T04:08:09.951Z,4.10
2023-01-13T04:10:37.578Z,3.80
2023-01-13T04:13:05.324Z,4.70
2023-01-13T04:15:33.072Z,4.40
2023-01-13T04:18:00.716Z,4.50
2023-01-13T04:20:28.334Z,4.10
2023-01-13T04:22:55.967Z,4.60
2023-01-13T04:25:23.587Z,4.30
2023-01-13T04:27:51.224Z,4.40
2023-01-13T04:30:18.875Z,4.10
2023-01-13T04:32:46.517Z,4.50
2023-01-13T04:35:14.127Z,4.90
2023-01-13T04:37:42.063Z,4.90
2023-01-13T04:40:09.677Z,4.70
2023-01-13T04:42:37.313Z,4.80
2023-01-13T04:45:04.972Z,4.80
2023-01-13T04:47:32.594Z,4.90
2023-01-13T04:50:00.235Z,4.60
2023-01-13T04:52:27.837Z,4.70
2023-01-13T04:54:56.349Z,4.50
2023-01-13T04:57:24.209Z,4.50
2023-01-13T04:59:51.818Z,4.40
2023-01-13T05:02:22.377Z,4.90
2023-01-13T05:04:50.243Z,3.90
2023-01-13T05:07:18.599Z,4.30
2023-01-13T05:09:46.213Z,4.90
2023-01-13T05:12:32.495Z,4.50
2023-01-13T05:15:18.840Z,5.20
2023-01-13T05:17:46.501Z,4.60
2023-01-13T05:20:14.164Z,5.20
2023-01-13T05:23:00.413Z,4.80
2023-01-13T05:25:28.445Z,4.80
2023-01-13T05:27:56.097Z,4.40
2023-01-13T05:30:23.723Z,4.90
2023-01-13T05:32:51.351Z,4.50
2023-01-13T05:35:19.017Z,4.90
2023-01-13T05:37:46.687Z,4.90
2023-01-13T05:40:33.165Z,6.00
2023-01-13T05:43:19.796Z,5.80
2023-01-13T05:45:47.429Z,5.40
2023-01-13T05:48:15.072Z,6.90
2023-01-13T05:50:42.896Z,5.70
2023-01-13T05:53:10.527Z,5.90
2023-01-13T05:55:38.141Z,6.20
2023-01-13T05:58:06.662Z,5.50
2023-01-13T06:00:34.272Z,7.40
2023-01-13T06:03:02.267Z,12.40
2023-01-13T06:05:29.928Z,19.90
2023-01-13T06:07:58.010Z,18.80
2023-01-13T06:10:25.711Z,7.30
2023-01-13T06:12:53.332Z,21.20
2023-01-13T06:15:20.961Z,9.70
2023-01-13T06:17:48.614Z,11.10
2023-01-13T06:20:16.244Z,8.80
2023-01-13T06:22:43.936Z,10.40
2023-01-13T06:25:11.757Z,8.40
2023-01-13T06:27:39.429Z,9.60
2023-01-13T06:30:07.035Z,7.60
2023-01-13T06:32:34.644Z,10.00
2023-01-13T06:35:04.719Z,10.00
2023-01-13T06:37:33.159Z,12.20
2023-01-13T06:40:00.798Z,9.40
2023-01-13T06:42:47.315Z,9.90
2023-01-13T06:45:14.933Z,7.90
2023-01-13T06:47:43.635Z,8.20
2023-01-13T06:50:11.272Z,9.20
2023-01-13T06:52:38.896Z,7.50
2023-01-13T06:55:06.570Z,8.70
2023-01-13T06:57:34.213Z,8.60
2023-01-13T07:00:01.844Z,70.40
2023-01-13T07:02:29.529Z,47.10
2023-01-13T07:04:57.238Z,11.90
2023-01-13T07:07:24.932Z,15.60
2023-01-13T07:09:52.808Z,31.50
2023-01-13T07:12:20.493Z,18.10
2023-01-13T07:15:07.047Z,9.90
2023-01-13T07:17:34.668Z,8.70
2023-01-13T07:20:02.324Z,10.30
2023-01-13T07:22:29.981Z,16.00
2023-01-13T07:24:58.232Z,11.20
2023-01-13T07:27:25.844Z,12.90
2023-01-13T07:29:53.569Z,15.40
2023-01-13T07:32:21.169Z,16.50
2023-01-13T07:34:48.881Z,7.60
2023-01-13T07:37:16.527Z,7.90
2023-01-13T07:39:45.542Z,10.20
2023-01-13T07:42:31.819Z,8.20
2023-01-13T07:44:59.445Z,9.50
2023-01-13T07:47:27.065Z,10.70
2023-01-13T07:49:54.680Z,8.90
2023-01-13T07:52:22.377Z,10.80
2023-01-13T07:54:50.428Z,9.60
2023-01-13T07:57:18.045Z,7.70
2023-01-13T07:59:45.641Z,9.70
2023-01-13T08:02:13.413Z,9.00
2023-01-13T08:04:41.486Z,10.50
2023-01-13T08:07:09.110Z,11.00
2023-01-13T08:09:36.717Z,10.60
2023-01-13T08:12:23.104Z,12.50
2023-01-13T08:14:51.903Z,11.70
2023-01-13T08:17:20.601Z,9.50
2023-01-13T08:19:48.561Z,9.40
2023-01-13T08:22:16.244Z,8.10
2023-01-13T08:24:43.853Z,6.80
2023-01-13T08:27:11.503Z,7.60
2023-01-13T08:29:39.259Z,8.30
2023-01-13T08:32:06.872Z,7.10
2023-01-13T08:34:34.488Z,8.30
2023-01-13T08:37:02.127Z,8.20
2023-01-13T08:39:29.775Z,7.30
2023-01-13T08:41:58.807Z,8.40
2023-01-13T08:44:26.579Z,7.30
2023-01-13T08:46:54.209Z,9.50
2023-01-13T08:49:21.892Z,11.30
2023-01-13T08:51:49.677Z,21.10
2023-01-13T08:54:17.313Z,11.00
2023-01-13T08:56:45.003Z,19.30
2023-01-13T08:59:12.733Z,23.00
2023-01-13T09:01:41.187Z,14.80
2023-01-13T09:04:08.900Z,11.70
2023-01-13T09:06:36.867Z,11.50
2023-01-13T09:09:04.565Z,8.30
2023-01-13T09:11:50.999Z,16.70
2023-01-13T09:14:18.931Z,11.30
2023-01-13T09:16:46.616Z,12.20
2023-01-13T09:19:14.299Z,9.90
2023-01-13T09:21:42.123Z,12.00
2023-01-13T09:24:09.737Z,8.20
2023-01-13T09:26:37.346Z,9.60
2023-01-13T09:29:04.940Z,9.20
2023-01-13T09:31:34.658Z,9.50
2023-01-13T09:34:20.787Z,10.00
2023-01-13T09:36:48.421Z,10.10
2023-01-13T09:39:16.071Z,10.30
2023-01-13T09:42:02.743Z,10.60
2023-01-13T09:44:30.435Z,8.50
2023-01-13T09:46:58.059Z,7.60
2023-01-13T09:49:25.660Z,7.50
2023-01-13T09:51:53.285Z,9.10
2023-01-13T09:54:20.977Z,7.60
2023-01-13T09:56:48.673Z,7.20
2023-01-13T09:59:16.429Z,6.80
2023-01-13T10:01:44.039Z,9.20
2023-01-13T10:04:11.694Z,10.00
2023-01-13T10:06:39.562Z,8.20
2023-01-13T10:09:07.194Z,46.80
2023-01-13T10:11:53.745Z,11.10
2023-01-13T10:14:21.374Z,7.10
2023-01-13T10:16:49.033Z,6.20
2023-01-13T10:19:16.736Z,9.90
2023-01-13T10:21:44.351Z,11.10
2023-01-13T10:24:12.089Z,14.50
2023-01-13T10:26:39.745Z,13.80
2023-01-13T10:29:07.392Z,22.80
2023-01-13T10:31:35.039Z,11.30
2023-01-13T10:34:04.139Z,15.60
2023-01-13T10:36:31.791Z,44.30
2023-01-13T10:38:59.425Z,20.70
2023-01-13T10:41:27.165Z,15.40
2023-01-13T10:43:54.787Z,9.80
2023-01-13T10:46:22.501Z,7.30
2023-01-13T10:48:50.300Z,8.70
2023-01-13T10:51:17.896Z,9.70
2023-01-13T10:53:45.573Z,8.30
2023-01-13T10:56:13.206Z,30.90
2023-01-13T10:58:40.848Z,16.50
2023-01-13T11:01:09.773Z,11.80
2023-01-13T11:03:37.784Z,9.80
2023-01-13T11:06:05.470Z,8.10
2023-01-13T11:08:33.090Z,8.10
2023-01-13T11:11:00.751Z,8.00
2023-01-13T11:13:28.364Z,10.40
2023-01-13T11:15:56.076Z,10.00
2023-01-13T11:18:23.966Z,9.00
2023-01-13T11:20:51.596Z,5.80
2023-01-13T11:23:22.051Z,6.00
2023-01-13T11:25:50.477Z,6.80
2023-01-13T11:28:18.146Z,22.10
2023-01-13T11:30:45.775Z,7.00
2023-01-13T11:33:13.371Z,6.00
2023-01-13T11:35:41.007Z,41.20
2023-01-13T11:38:09.021Z,8.60
2023-01-13T11:40:37.019Z,8.30
2023-01-13T11:43:04.623Z,9.30
2023-01-13T11:45:32.238Z,7.30
2023-01-13T11:47:59.842Z,6.10
2023-01-13T11:50:27.483Z,6.50
2023-01-13T11:52:55.091Z,6.60
2023-01-13T11:55:22.950Z,7.50
2023-01-13T11:57:50.655Z,10.00
2023-01-13T12:00:18.276Z,7.20
2023-01-13T12:02:46.019Z,14.70
2023-01-13T12:05:13.765Z,9.10
2023-01-13T12:07:41.379Z,8.20
2023-01-13T12:10:13.221Z,7.00
2023-01-13T12:12:41.371Z,7.50
2023-01-13T12:15:09.142Z,11.10
2023-01-13T12:17:36.781Z,9.20
2023-01-13T12:20:04.509Z,10.80
2023-01-13T12:22:32.128Z,10.40
2023-01-13T12:24:59.732Z,12.80
2023-01-13T12:27:27.362Z,12.60
2023-01-13T12:29:57.195Z,14.50
2023-01-13T12:32:24.853Z,17.90
2023-01-13T12:34:52.466Z,14.70
2023-01-13T12:37:20.084Z,23.10
2023-01-13T12:39:47.734Z,14.10
2023-01-13T12:42:34.359Z,11.80
2023-01-13T12:45:01.984Z,10.70
2023-01-13T12:47:29.652Z,10.30
2023-01-13T12:49:57.269Z,7.70
2023-01-13T12:52:25.211Z,10.30
2023-01-13T12:54:54.012Z,11.50
2023-01-13T12:57:21.644Z,16.40
2023-01-13T12:59:49.736Z,12.00
2023-01-13T13:02:18.098Z,9.30
2023-01-13T13:04:48.595Z,8.80
2023-01-13T13:07:16.225Z,9.60
2023-01-13T13:09:44.168Z,10.80
2023-01-13T13:12:11.818Z,20.10
2023-01-13T13:14:39.517Z,15.90
2023-01-13T13:17:07.202Z,59.30
2023-01-13T13:19:34.817Z,21.80
2023-01-13T13:22:02.411Z,13.50
2023-01-13T13:24:30.030Z,12.00
2023-01-13T13:26:57.897Z,17.40
2023-01-13T13:29:25.540Z,18.20
2023-01-13T13:31:53.154Z,19.70
2023-01-13T13:34:20.745Z,12.80
2023-01-13T13:36:48.377Z,11.40
2023-01-13T13:39:34.927Z,13.60
2023-01-13T13:42:21.350Z,16.00
2023-01-13T13:45:07.659Z,36.10
2023-01-13T13:47:35.268Z,13.60
2023-01-13T13:50:02.922Z,16.80
2023-01-13T13:52:30.639Z,26.40
2023-01-13T13:54:58.323Z,29.90
2023-01-13T13:57:25.938Z,25.40
2023-01-13T13:59:53.598Z,22.20
2023-01-13T14:02:21.282Z,36.20
2023-01-13T14:04:49.113Z,29.90
2023-01-13T14:07:18.498Z,22.50
2023-01-13T14:09:46.119Z,18.00
2023-01-13T14:12:14.438Z,33.30
2023-01-13T14:14:42.038Z,21.60
2023-01-13T14:17:09.690Z,22.00
2023-01-13T14:19:40.497Z,24.50
2023-01-13T14:22:08.130Z,43.60
2023-01-13T14:24:35.767Z,33.30
2023-01-13T14:27:03.490Z,37.80
2023-01-13T14:29:31.132Z,19.30
2023-01-13T14:31:58.732Z,20.10
2023-01-13T14:34:31.858Z,15.00
2023-01-13T14:37:00.785Z,35.70
2023-01-13T14:39:28.467Z,52.30
2023-01-13T14:41:56.989Z,53.10
2023-01-13T14:44:25.782Z,27.40
2023-01-13T14:46:55.400Z,24.70
2023-01-13T14:49:23.004Z,18.40
2023-01-13T14:51:50.635Z,17.60
2023-01-13T14:54:18.253Z,15.70
2023-01-13T14:56:47.395Z,12.50
2023-01-13T14:59:14.999Z,13.10
2023-01-13T15:01:42.746Z,21.40
2023-01-13T15:04:10.569Z,21.00
2023-01-13T15:06:38.244Z,20.60
2023-01-13T15:09:05.913Z,20.70
2023-01-13T15:11:33.545Z,25.00
2023-01-13T15:14:04.340Z,32.70
2023-01-13T15:16:34.567Z,23.10
2023-01-13T15:19:03.478Z,17.30
2023-01-13T15:21:31.106Z,21.40
2023-01-13T15:24:00.042Z,16.70
2023-01-13T15:26:27.728Z,13.10
2023-01-13T15:28:55.802Z,11.60
2023-01-13T15:31:23.580Z,13.30
2023-01-13T15:33:51.367Z,24.60
2023-01-13T15:36:18.984Z,23.80
2023-01-13T15:38:46.661Z,26.60
2023-01-13T15:41:14.294Z,23.30
2023-01-13T15:44:01.016Z,20.60
2023-01-13T15:46:38.085Z,16.90
2023-01-13T15:49:09.955Z,18.40
2023-01-13T15:51:41.481Z,14.50
2023-01-13T15:54:09.181Z,15.30
2023-01-13T15:56:36.853Z,19.10
2023-01-13T15:59:04.604Z,17.00
2023-01-13T16:01:32.352Z,25.80
2023-01-13T16:04:00.036Z,19.40
2023-01-13T16:06:28.042Z,20.10
2023-01-13T16:08:55.696Z,16.40
2023-01-13T16:11:23.311Z,18.70
2023-01-13T16:13:51.194Z,14.50
2023-01-13T16:16:19.017Z,11.00
2023-01-13T16:18:46.664Z,11.60
2023-01-13T16:21:14.757Z,13.20
2023-01-13T16:23:42.458Z,11.70
2023-01-13T16:26:10.085Z,10.20
2023-01-13T16:28:37.709Z,9.50
2023-01-13T16:31:05.323Z,13.60
2023-01-13T16:33:32.928Z,15.30
2023-01-13T16:36:11.790Z,18.10
2023-01-13T16:38:40.451Z,12.00
2023-01-13T16:41:08.494Z,12.70
2023-01-13T16:43:36.372Z,12.00
2023-01-13T16:46:04.275Z,14.30
2023-01-13T16:48:32.135Z,11.80
2023-01-13T16:50:59.808Z,11.60
2023-01-13T16:53:28.041Z,13.70
2023-01-13T16:55:55.655Z,9.90
2023-01-13T16:58:23.584Z,10.50
2023-01-13T17:00:53.151Z,10.30
2023-01-13T17:03:21.027Z,10.00
2023-01-13T17:05:48.741Z,12.40
2023-01-13T17:08:17.944Z,11.50
2023-01-13T17:10:45.959Z,27.30
2023-01-13T17:13:16.776Z,12.00
2023-01-13T17:15:44.803Z,12.10
2023-01-13T17:18:13.750Z,16.90
2023-01-13T17:20:41.493Z,11.80
2023-01-13T17:23:09.108Z,23.70
2023-01-13T17:25:36.699Z,27.70
2023-01-13T17:28:04.323Z,22.50
2023-01-13T17:30:31.935Z,14.80
2023-01-13T17:32:59.531Z,15.70
2023-01-13T17:35:27.725Z,18.00
2023-01-13T17:37:55.367Z,11.40
2023-01-13T17:40:23.086Z,14.90
2023-01-13T17:42:50.777Z,16.80
2023-01-13T17:45:18.443Z,11.00
2023-01-13T17:47:47.411Z,9.60
2023-01-13T17:50:15.220Z,10.40
2023-01-13T17:52:42.829Z,11.70
2023-01-13T17:55:10.424Z,17.70
2023-01-13T17:57:38.052Z,14.00
2023-01-13T18:00:05.687Z,14.80
2023-01-13T18:02:33.552Z,14.10
2023-01-13T18:05:01.222Z,12.10
2023-01-13T18:07:28.843Z,13.30
2023-01-13T18:09:56.448Z,13.70
2023-01-13T18:12:24.069Z,9.70
2023-01-13T18:14:51.713Z,12.10
2023-01-13T18:17:19.419Z,11.60
2023-01-13T18:20:06.023Z,9.90
2023-01-13T18:22:52.461Z,10.30
2023-01-13T18:25:38.743Z,12.90
2023-01-13T18:28:06.409Z,14.50
2023-01-13T18:30:34.086Z,8.80
2023-01-13T18:33:01.762Z,9.40
2023-01-13T18:35:30.277Z,21.70
2023-01-13T18:37:57.873Z,14.30
2023-01-13T18:40:25.703Z,9.00
2023-01-13T18:42:56.402Z,8.60
2023-01-13T18:45:24.501Z,12.40
2023-01-13T18:47:52.153Z,8.30
2023-01-13T18:50:19.777Z,9.20
2023-01-13T18:52:47.505Z,10.20
2023-01-13T18:55:15.120Z,7.70
2023-01-13T18:57:42.757Z,10.10
2023-01-13T19:00:10.426Z,10.90
2023-01-13T19:02:38.183Z,9.40
2023-01-13T19:05:05.876Z,9.40
2023-01-13T19:07:35.697Z,9.60
2023-01-13T19:10:04.476Z,11.40
2023-01-13T19:12:33.862Z,10.30
2023-01-13T19:15:01.563Z,10.50
2023-01-13T19:17:29.316Z,9.80
2023-01-13T19:19:58.512Z,8.20
2023-01-13T19:22:27.438Z,9.50
2023-01-13T19:24:55.040Z,9.30
2023-01-13T19:27:22.685Z,10.60
2023-01-13T19:29:51.994Z,10.00
2023-01-13T19:32:20.344Z,8.80
2023-01-13T19:34:49.515Z,11.90
2023-01-13T19:37:17.198Z,12.10
2023-01-13T19:39:44.879Z,13.90
2023-01-13T19:42:31.523Z,16.50
2023-01-13T19:45:18.142Z,16.60
2023-01-13T19:47:46.081Z,20.20
2023-01-13T19:50:13.819Z,12.70
2023-01-13T19:52:41.564Z,12.10
2023-01-13T19:55:09.943Z,11.20
2023-01-13T19:57:39.390Z,10.20
2023-01-13T20:00:07.090Z,11.40
2023-01-13T20:02:36.784Z,11.70
2023-01-13T20:05:06.718Z,9.70
2023-01-13T20:07:35.380Z,8.60
2023-01-13T20:10:03.086Z,10.70
2023-01-13T20:12:30.713Z,8.90
2023-01-13T20:14:58.326Z,11.80
2023-01-13T20:17:26.541Z,9.70
2023-01-13T20:19:54.636Z,10.90
2023-01-13T20:22:22.282Z,11.80
2023-01-13T20:24:55.091Z,10.70
2023-01-13T20:27:24.066Z,9.00
2023-01-13T20:29:51.857Z,11.60
2023-01-13T20:32:19.498Z,10.10
2023-01-13T20:34:47.122Z,9.50
2023-01-13T20:37:14.760Z,7.90
2023-01-13T20:39:46.581Z,7.30
2023-01-13T20:42:29.662Z,8.30
2023-01-13T20:44:57.477Z,7.20
2023-01-13T20:47:25.168Z,7.10
2023-01-13T20:49:52.800Z,9.50
2023-01-13T20:52:20.395Z,9.40
2023-01-13T20:54:47.989Z,7.30
2023-01-13T20:57:15.732Z,6.70
2023-01-13T20:59:43.356Z,7.00
2023-01-13T21:02:10.951Z,7.80
2023-01-13T21:04:38.553Z,5.60
2023-01-13T21:07:06.165Z,8.20
2023-01-13T21:09:33.918Z,12.60
2023-01-13T21:12:20.221Z,13.70
2023-01-13T21:15:06.680Z,34.60
2023-01-13T21:17:52.955Z,9.70
2023-01-13T21:20:20.803Z,13.00
2023-01-13T21:22:48.400Z,12.00
2023-01-13T21:25:16.741Z,11.30
2023-01-13T21:27:44.386Z,10.20
2023-01-13T21:30:15.641Z,8.90
2023-01-13T21:32:43.360Z,11.80
2023-01-13T21:35:11.045Z,8.50
2023-01-13T21:37:38.693Z,10.50
2023-01-13T21:40:06.341Z,8.80
2023-01-13T21:42:52.718Z,12.30
2023-01-13T21:45:39.444Z,10.50
2023-01-13T21:48:07.350Z,10.00
2023-01-13T21:50:34.951Z,9.50
2023-01-13T21:53:02.570Z,8.40
2023-01-13T21:55:30.577Z,6.70
2023-01-13T21:57:58.320Z,8.50
2023-01-13T22:00:25.988Z,9.60
2023-01-13T22:02:53.679Z,9.20
2023-01-13T22:05:21.641Z,9.20
2023-01-13T22:07:49.260Z,10.30
2023-01-13T22:10:16.872Z,7.30
2023-01-13T22:12:44.789Z,8.50
2023-01-13T22:15:13.314Z,10.40
2023-01-13T22:17:42.396Z,11.00
2023-01-13T22:20:10.445Z,8.00
2023-01-13T22:22:38.366Z,7.80
2023-01-13T22:25:07.203Z,9.80
2023-01-13T22:27:39.593Z,8.60
2023-01-13T22:30:07.487Z,8.10
2023-01-13T22:32:35.374Z,8.10
2023-01-13T22:35:03.256Z,8.40
2023-01-13T22:37:31.121Z,8.70
2023-01-13T22:39:59.010Z,8.90
2023-01-13T22:42:26.892Z,7.10
2023-01-13T22:44:54.753Z,11.20
2023-01-13T22:47:22.668Z,12.00
2023-01-13T22:49:50.586Z,11.90
2023-01-13T22:52:18.443Z,10.10
2023-01-13T22:54:46.351Z,14.80
2023-01-13T22:57:14.400Z,8.70
2023-01-13T22:59:42.514Z,8.00
2023-01-13T23:02:10.424Z,7.40
2023-01-13T23:04:38.353Z,8.40
2023-01-13T23:07:06.281Z,6.80
2023-01-13T23:09:34.254Z,7.20
2023-01-13T23:12:02.138Z,7.80
2023-01-13T23:14:30.019Z,7.80
2023-01-13T23:16:57.917Z,8.60
2023-01-13T23:19:25.911Z,13.10
2023-01-13T23:21:53.789Z,7.90
2023-01-13T23:24:26.042Z,8.30
2023-01-13T23:26:53.909Z,7.30
2023-01-13T23:29:21.806Z,9.90
2023-01-13T23:31:49.663Z,7.50
2023-01-13T23:34:17.545Z,7.80
2023-01-13T23:36:45.801Z,7.20
2023-01-13T23:39:13.736Z,6.90
2023-01-13T23:41:41.619Z,8.00
2023-01-13T23:44:09.494Z,8.20
2023-01-13T23:46:37.457Z,14.60
2023-01-13T23:49:05.386Z,7.90
2023-01-13T23:51:33.407Z,10.20
2023-01-13T23:54:01.724Z,9.10
2023-01-13T23:56:29.593Z,8.60
2023-01-13T23:58:57.532Z,9.70
